createdAt,value
2019-03-29T00:00:53.049Z,139.73
2019-03-29T00:03:25.948Z,145.93
2019-03-29T00:05:58.730Z,204.67
2019-03-29T00:08:31.936Z,208.63
2019-03-29T00:11:04.719Z,183.87
2019-03-29T00:13:37.543Z,190.77
2019-03-29T00:16:10.392Z,207.43
2019-03-29T00:18:43.501Z,319.10
2019-03-29T00:21:16.297Z,266.30
2019-03-29T00:23:49.323Z,215.00
2019-03-29T00:26:22.166Z,223.97
2019-03-29T00:28:55.117Z,252.33
2019-03-29T00:31:27.898Z,248.77
2019-03-29T00:34:01.055Z,231.93
2019-03-29T00:36:34.379Z,206.07
2019-03-29T00:39:08.630Z,168.50
2019-03-29T00:41:41.687Z,267.57
2019-03-29T00:44:14.480Z,268.40
2019-03-29T00:46:47.404Z,240.63
2019-03-29T00:49:20.314Z,256.20
2019-03-29T00:51:53.098Z,253.20
2019-03-29T00:54:25.908Z,219.30
2019-03-29T00:56:58.686Z,226.60
2019-03-29T00:59:31.864Z,205.83
2019-03-29T01:02:04.667Z,209.40
2019-03-29T01:04:37.466Z,277.17
2019-03-29T01:07:10.436Z,256.73
2019-03-29T01:09:43.259Z,194.20
2019-03-29T01:12:16.146Z,222.80
2019-03-29T01:14:48.957Z,199.33
2019-03-29T01:17:21.828Z,242.40
2019-03-29T01:19:55.340Z,233.17
2019-03-29T01:22:28.963Z,225.10
2019-03-29T01:25:02.108Z,226.00
2019-03-29T01:27:34.915Z,186.67
2019-03-29T01:30:08.641Z,166.77
2019-03-29T01:32:41.952Z,176.93
2019-03-29T01:35:14.817Z,183.87
2019-03-29T01:37:47.549Z,172.70
2019-03-29T01:40:20.513Z,187.90
2019-03-29T01:42:53.301Z,204.73
2019-03-29T01:45:26.156Z,212.67
2019-03-29T01:47:59.033Z,188.50
2019-03-29T01:50:32.095Z,191.40
2019-03-29T01:53:04.911Z,220.10
2019-03-29T01:55:37.739Z,202.37
2019-03-29T01:58:12.813Z,227.80
2019-03-29T02:00:45.599Z,221.90
2019-03-29T02:03:18.489Z,276.50
2019-03-29T02:05:53.214Z,408.43
2019-03-29T02:08:35.739Z,417.40
2019-03-29T02:11:00.575Z,357.23
2019-03-29T02:13:33.399Z,288.10
2019-03-29T02:16:06.277Z,230.93
2019-03-29T02:18:39.866Z,193.20
2019-03-29T02:21:12.925Z,140.50
2019-03-29T02:23:45.697Z,142.30
2019-03-29T02:26:18.494Z,145.63
2019-03-29T02:28:51.829Z,165.73
2019-03-29T02:31:26.130Z,220.90
2019-03-29T02:33:59.359Z,214.00
2019-03-29T02:36:32.109Z,177.70
2019-03-29T02:39:05.264Z,228.37
2019-03-29T02:41:38.231Z,246.33
2019-03-29T02:44:11.394Z,279.77
2019-03-29T02:46:44.193Z,286.33
2019-03-29T02:49:16.966Z,226.53
2019-03-29T02:51:49.826Z,321.37
2019-03-29T02:54:22.662Z,388.30
2019-03-29T02:56:55.494Z,281.87
2019-03-29T02:59:28.270Z,229.87
2019-03-29T03:02:01.709Z,218.73
2019-03-29T03:04:34.549Z,206.27
2019-03-29T03:07:07.387Z,201.63
2019-03-29T03:09:40.191Z,269.40
2019-03-29T03:12:12.986Z,189.07
2019-03-29T03:14:45.793Z,249.27
2019-03-29T03:17:18.635Z,210.47
2019-03-29T03:19:51.797Z,249.23
2019-03-29T03:22:24.647Z,204.43
2019-03-29T03:24:57.447Z,216.33
2019-03-29T03:27:30.241Z,214.17
2019-03-29T03:30:03.527Z,194.73
2019-03-29T03:32:36.280Z,230.50
2019-03-29T03:35:10.493Z,256.17
2019-03-29T03:37:43.314Z,276.90
2019-03-29T03:40:16.959Z,242.47
2019-03-29T03:42:50.322Z,193.13
2019-03-29T03:45:23.114Z,200.20
2019-03-29T03:47:56.002Z,144.10
2019-03-29T03:50:42.478Z,146.10
2019-03-29T03:53:15.404Z,156.70
2019-03-29T03:55:48.113Z,147.07
2019-03-29T03:58:23.001Z,150.07
2019-03-29T04:00:58.214Z,239.60
2019-03-29T04:03:31.399Z,229.77
2019-03-29T04:06:04.421Z,216.07
2019-03-29T04:08:37.321Z,168.90
2019-03-29T04:11:10.162Z,173.93
2019-03-29T04:13:43.085Z,297.77
2019-03-29T04:16:15.890Z,231.97
2019-03-29T04:18:48.689Z,166.30
2019-03-29T04:21:21.483Z,202.97
2019-03-29T04:23:54.280Z,243.57
2019-03-29T04:26:27.059Z,228.77
2019-03-29T04:29:04.763Z,199.43
2019-03-29T04:31:34.423Z,201.47
2019-03-29T04:34:07.225Z,171.43
2019-03-29T04:36:40.149Z,196.77
2019-03-29T04:39:13.033Z,195.07
2019-03-29T04:41:45.922Z,178.30
2019-03-29T04:44:18.715Z,205.20
2019-03-29T04:46:51.621Z,177.10
2019-03-29T04:49:24.403Z,166.47
2019-03-29T04:51:57.275Z,174.70
2019-03-29T04:54:30.075Z,150.67
2019-03-29T04:57:02.836Z,160.33
2019-03-29T04:59:35.709Z,227.90
2019-03-29T05:02:08.507Z,210.80
2019-03-29T05:04:43.542Z,199.70
2019-03-29T05:07:16.429Z,212.27
2019-03-29T05:09:49.411Z,168.33
2019-03-29T05:12:22.281Z,212.30
2019-03-29T05:14:55.668Z,210.63
2019-03-29T05:17:28.539Z,258.03
2019-03-29T05:20:01.460Z,210.90
2019-03-29T05:22:34.354Z,198.10
2019-03-29T05:25:07.647Z,195.87
2019-03-29T05:27:40.799Z,184.27
2019-03-29T05:30:13.917Z,192.73
2019-03-29T05:32:46.702Z,178.07
2019-03-29T05:35:19.598Z,165.40
2019-03-29T05:37:52.490Z,176.37
2019-03-29T05:40:34.836Z,146.50
2019-03-29T05:42:59.881Z,123.00
2019-03-29T05:45:32.723Z,122.53
2019-03-29T05:48:05.677Z,128.83
2019-03-29T05:50:38.523Z,136.37
2019-03-29T05:53:11.509Z,148.13
2019-03-29T05:55:44.331Z,167.73
2019-03-29T05:58:17.209Z,185.93
2019-03-29T06:00:50.023Z,160.97
2019-03-29T06:03:24.107Z,166.40
2019-03-29T06:05:56.857Z,154.17
2019-03-29T06:08:31.155Z,152.07
2019-03-29T06:11:05.007Z,181.43
2019-03-29T06:13:37.939Z,174.90
2019-03-29T06:16:10.863Z,204.57
2019-03-29T06:18:44.037Z,189.70
2019-03-29T06:21:16.890Z,185.73
2019-03-29T06:23:49.709Z,174.37
2019-03-29T06:26:22.576Z,176.47
2019-03-29T06:28:55.451Z,174.20
2019-03-29T06:31:28.337Z,176.80
2019-03-29T06:34:01.264Z,162.43
2019-03-29T06:36:36.801Z,164.83
2019-03-29T06:39:11.359Z,159.60
2019-03-29T06:41:44.206Z,148.50
2019-03-29T06:44:17.074Z,165.53
2019-03-29T06:46:50.351Z,171.80
2019-03-29T06:49:23.368Z,170.43
2019-03-29T06:51:56.359Z,158.33
2019-03-29T06:54:29.199Z,191.63
2019-03-29T06:57:04.382Z,159.33
2019-03-29T06:59:37.692Z,176.97
2019-03-29T07:02:10.469Z,168.83
2019-03-29T07:04:43.348Z,180.87
2019-03-29T07:07:16.153Z,159.27
2019-03-29T07:09:49.025Z,136.57
2019-03-29T07:12:21.911Z,129.27
2019-03-29T07:14:54.764Z,105.60
2019-03-29T07:17:27.743Z,100.60
2019-03-29T07:20:02.681Z,108.23
2019-03-29T07:22:35.538Z,111.20
2019-03-29T07:25:09.463Z,105.90
2019-03-29T07:27:45.841Z,127.20
2019-03-29T07:30:17.513Z,119.53
2019-03-29T07:32:50.749Z,127.83
2019-03-29T07:35:23.862Z,125.73
2019-03-29T07:37:56.694Z,119.77
2019-03-29T07:40:29.693Z,116.37
2019-03-29T07:43:02.609Z,107.13
2019-03-29T07:45:35.545Z,107.47
2019-03-29T07:48:10.081Z,105.33
2019-03-29T07:50:42.925Z,126.77
2019-03-29T07:53:16.237Z,185.47
2019-03-29T07:55:51.910Z,151.13
2019-03-29T07:58:25.027Z,141.37
2019-03-29T08:01:00.688Z,115.75
2019-03-29T08:03:33.561Z,139.50
2019-03-29T08:06:06.409Z,164.95
2019-03-29T08:08:40.959Z,111.68
2019-03-29T08:11:25.528Z,85.38
2019-03-29T08:13:48.390Z,73.25
2019-03-29T08:16:21.834Z,78.83
2019-03-29T08:18:54.752Z,73.12
2019-03-29T08:21:27.545Z,75.92
2019-03-29T08:24:00.501Z,71.60
2019-03-29T08:26:33.423Z,78.97
2019-03-29T08:29:06.289Z,79.97
2019-03-29T08:31:39.186Z,82.88
2019-03-29T08:34:12.015Z,77.78
2019-03-29T08:36:44.906Z,96.15
2019-03-29T08:39:27.704Z,68.22
2019-03-29T08:41:59.905Z,73.95
2019-03-29T08:44:27.168Z,68.87
2019-03-29T08:47:00.218Z,70.32
2019-03-29T08:49:33.037Z,71.85
2019-03-29T08:52:05.862Z,73.28
2019-03-29T08:54:38.791Z,63.28
2019-03-29T08:57:13.099Z,60.95
2019-03-29T08:59:45.929Z,54.58
2019-03-29T09:02:18.918Z,40.40
2019-03-29T09:04:52.223Z,47.20
2019-03-29T09:07:27.946Z,35.98
2019-03-29T09:10:00.840Z,32.70
2019-03-29T09:12:33.751Z,32.90
2019-03-29T09:15:06.724Z,24.82
2019-03-29T09:17:40.793Z,32.45
2019-03-29T09:20:13.980Z,20.32
2019-03-29T09:22:46.872Z,24.10
2019-03-29T09:25:21.100Z,25.72
2019-03-29T09:27:54.213Z,31.85
2019-03-29T09:30:26.991Z,27.62
2019-03-29T09:32:59.943Z,19.52
2019-03-29T09:35:32.869Z,19.65
2019-03-29T09:38:06.820Z,25.20
2019-03-29T09:40:39.739Z,23.85
2019-03-29T09:43:12.611Z,25.05
2019-03-29T09:45:45.409Z,26.77
2019-03-29T09:48:18.220Z,26.57
2019-03-29T09:50:53.156Z,22.93
2019-03-29T09:53:26.083Z,25.23
2019-03-29T09:55:59.057Z,27.27
2019-03-29T09:58:31.972Z,35.95
2019-03-29T10:01:04.888Z,32.42
2019-03-29T10:03:37.756Z,22.62
2019-03-29T10:06:11.012Z,53.45
2019-03-29T10:08:43.866Z,37.28
2019-03-29T10:11:16.804Z,25.05
2019-03-29T10:13:49.697Z,27.37
2019-03-29T10:16:25.706Z,24.20
2019-03-29T10:18:57.053Z,28.07
2019-03-29T10:21:29.951Z,26.73
2019-03-29T10:24:02.868Z,37.17
2019-03-29T10:26:35.752Z,23.47
2019-03-29T10:29:09.105Z,31.33
2019-03-29T10:31:45.405Z,56.28
2019-03-29T10:34:18.455Z,28.65
2019-03-29T10:36:51.283Z,26.20
2019-03-29T10:39:26.301Z,35.05
2019-03-29T10:41:58.568Z,37.45
2019-03-29T10:44:31.396Z,30.90
2019-03-29T10:47:04.777Z,30.32
2019-03-29T10:49:37.619Z,32.93
2019-03-29T10:52:10.548Z,25.97
2019-03-29T10:54:43.407Z,32.90
2019-03-29T10:57:16.355Z,24.13
2019-03-29T10:59:49.268Z,23.67
2019-03-29T11:02:22.125Z,26.77
2019-03-29T11:04:55.073Z,27.67
2019-03-29T11:07:27.901Z,24.17
2019-03-29T11:10:01.271Z,37.73
2019-03-29T11:12:34.133Z,23.93
2019-03-29T11:15:07.677Z,25.00
2019-03-29T11:17:40.518Z,26.83
2019-03-29T11:20:13.354Z,25.70
2019-03-29T11:22:46.123Z,21.43
2019-03-29T11:25:20.519Z,28.43
2019-03-29T11:27:53.754Z,23.63
2019-03-29T11:30:41.219Z,21.47
2019-03-29T11:33:01.314Z,22.57
2019-03-29T11:35:36.141Z,34.83
2019-03-29T11:38:08.897Z,24.27
2019-03-29T11:40:42.597Z,23.12
2019-03-29T11:43:26.611Z,59.45
2019-03-29T11:45:51.767Z,28.40
2019-03-29T11:48:24.707Z,15.95
2019-03-29T11:50:57.556Z,27.27
2019-03-29T11:53:30.540Z,19.23
2019-03-29T11:56:03.490Z,29.37
2019-03-29T11:58:36.323Z,25.08
2019-03-29T12:01:10.714Z,57.13
2019-03-29T12:03:43.551Z,22.20
2019-03-29T12:06:16.831Z,16.87
2019-03-29T12:08:49.875Z,19.40
2019-03-29T12:11:22.892Z,35.00
2019-03-29T12:13:56.991Z,38.77
2019-03-29T12:16:29.881Z,29.40
2019-03-29T12:19:02.939Z,20.03
2019-03-29T12:21:35.868Z,21.73
2019-03-29T12:24:08.865Z,17.30
2019-03-29T12:26:41.749Z,19.87
2019-03-29T12:29:14.591Z,20.07
2019-03-29T12:31:48.043Z,56.03
2019-03-29T12:34:21.217Z,31.63
2019-03-29T12:36:55.112Z,37.13
2019-03-29T12:39:28.037Z,27.00
2019-03-29T12:42:01.513Z,22.23
2019-03-29T12:44:36.293Z,20.67
2019-03-29T12:47:09.141Z,19.60
2019-03-29T12:49:43.481Z,22.53
2019-03-29T12:52:17.053Z,18.70
2019-03-29T12:54:50.035Z,16.67
2019-03-29T12:57:23.042Z,32.47
2019-03-29T12:59:56.033Z,23.73
2019-03-29T13:02:34.487Z,24.23
2019-03-29T13:05:07.685Z,19.93
2019-03-29T13:07:40.496Z,18.87
2019-03-29T13:10:14.073Z,17.90
2019-03-29T13:12:47.056Z,16.57
2019-03-29T13:15:19.917Z,24.57
2019-03-29T13:17:53.015Z,22.10
2019-03-29T13:20:26.002Z,19.83
2019-03-29T13:22:58.909Z,20.30
2019-03-29T13:25:32.095Z,17.70
2019-03-29T13:28:06.085Z,20.40
2019-03-29T13:30:38.926Z,29.17
2019-03-29T13:33:12.105Z,22.90
2019-03-29T13:35:44.943Z,23.37
2019-03-29T13:38:20.447Z,26.13
2019-03-29T13:40:52.472Z,27.30
2019-03-29T13:43:25.771Z,23.80
2019-03-29T13:45:58.671Z,24.77
2019-03-29T13:48:31.831Z,28.30
2019-03-29T13:51:04.790Z,25.77
2019-03-29T13:53:37.717Z,32.73
2019-03-29T13:56:11.107Z,31.47
2019-03-29T13:58:43.879Z,37.47
2019-03-29T14:01:20.128Z,24.27
2019-03-29T14:03:53.161Z,22.50
2019-03-29T14:06:26.000Z,25.43
2019-03-29T14:08:58.914Z,19.67
2019-03-29T14:11:31.994Z,19.87
2019-03-29T14:14:04.910Z,23.40
2019-03-29T14:16:37.855Z,25.80
2019-03-29T14:19:13.127Z,23.43
2019-03-29T14:21:46.104Z,24.10
2019-03-29T14:24:19.001Z,21.80
2019-03-29T14:26:52.301Z,25.00
2019-03-29T14:29:25.175Z,26.07
2019-03-29T14:31:58.032Z,24.73
2019-03-29T14:34:31.042Z,31.00
2019-03-29T14:37:04.082Z,26.70
2019-03-29T14:39:39.648Z,32.80
2019-03-29T14:42:12.934Z,33.43
2019-03-29T14:44:52.251Z,23.33
2019-03-29T14:47:21.117Z,24.37
2019-03-29T14:49:53.940Z,27.67
2019-03-29T14:52:28.133Z,34.23
2019-03-29T14:55:01.080Z,29.33
2019-03-29T14:57:33.945Z,34.83
2019-03-29T15:00:08.226Z,36.10
2019-03-29T15:02:41.368Z,33.13
2019-03-29T15:05:14.579Z,34.33
2019-03-29T15:07:47.485Z,31.17
2019-03-29T15:10:29.074Z,24.03
2019-03-29T15:13:02.002Z,29.93
2019-03-29T15:15:34.782Z,28.67
2019-03-29T15:18:07.970Z,30.00
2019-03-29T15:20:52.603Z,31.07
2019-03-29T15:23:15.749Z,29.77
2019-03-29T15:25:48.536Z,33.00
2019-03-29T15:28:21.747Z,25.50
2019-03-29T15:30:54.585Z,38.30
2019-03-29T15:33:27.402Z,27.97
2019-03-29T15:36:00.215Z,30.77
2019-03-29T15:38:33.065Z,33.20
2019-03-29T15:41:05.828Z,40.83
2019-03-29T15:43:38.736Z,36.47
2019-03-29T15:46:11.566Z,42.87
2019-03-29T15:48:44.388Z,34.13
2019-03-29T15:51:17.259Z,47.87
2019-03-29T15:53:50.060Z,33.67
2019-03-29T15:56:22.897Z,40.73
2019-03-29T15:58:55.685Z,35.60
2019-03-29T16:01:28.482Z,38.97
2019-03-29T16:04:01.558Z,32.40
2019-03-29T16:06:34.454Z,36.07
2019-03-29T16:09:08.713Z,39.47
2019-03-29T16:11:41.497Z,42.67
2019-03-29T16:14:14.275Z,53.43
2019-03-29T16:16:47.073Z,46.97
2019-03-29T16:19:19.896Z,47.57
2019-03-29T16:21:52.655Z,45.80
2019-03-29T16:24:25.529Z,46.97
2019-03-29T16:26:58.336Z,59.00
2019-03-29T16:29:31.437Z,65.90
2019-03-29T16:32:04.252Z,48.00
2019-03-29T16:34:37.228Z,56.93
2019-03-29T16:37:10.075Z,51.97
2019-03-29T16:39:42.892Z,57.37
2019-03-29T16:42:15.689Z,104.27
2019-03-29T16:44:48.702Z,77.23
2019-03-29T16:47:21.513Z,131.17
2019-03-29T16:49:54.301Z,73.23
2019-03-29T16:52:27.083Z,77.07
2019-03-29T16:55:12.553Z,62.60
2019-03-29T16:57:34.421Z,58.53
2019-03-29T17:00:12.401Z,57.90
2019-03-29T17:02:44.825Z,51.43
2019-03-29T17:05:17.648Z,51.10
2019-03-29T17:07:50.548Z,54.87
2019-03-29T17:10:23.349Z,46.90
2019-03-29T17:12:56.134Z,52.20
2019-03-29T17:15:29.365Z,68.13
2019-03-29T17:18:02.172Z,69.00
2019-03-29T17:20:55.078Z,73.70
2019-03-29T17:24:16.550Z,95.33
2019-03-29T17:27:07.303Z,88.63
2019-03-29T17:30:15.623Z,73.37
2019-03-29T17:33:30.552Z,85.60
2019-03-29T17:36:00.370Z,95.93
2019-03-29T17:38:33.217Z,76.93
2019-03-29T17:41:06.039Z,82.33
2019-03-29T17:43:38.886Z,86.73
2019-03-29T17:46:16.510Z,109.80
2019-03-29T17:48:46.739Z,146.20
2019-03-29T17:51:19.602Z,139.90
2019-03-29T17:53:52.518Z,140.53
2019-03-29T17:56:25.369Z,92.90
2019-03-29T17:58:58.136Z,97.73
2019-03-29T18:01:31.208Z,74.57
2019-03-29T18:04:04.094Z,80.10
2019-03-29T18:06:36.942Z,82.10
2019-03-29T18:09:10.310Z,92.20
2019-03-29T18:11:43.127Z,76.10
2019-03-29T18:14:15.928Z,78.50
2019-03-29T18:16:48.814Z,91.37
2019-03-29T18:19:21.964Z,91.90
2019-03-29T18:21:54.779Z,100.10
2019-03-29T18:24:27.564Z,91.30
2019-03-29T18:27:01.177Z,89.80
2019-03-29T18:29:34.009Z,93.17
2019-03-29T18:32:06.806Z,114.80
2019-03-29T18:34:41.743Z,106.03
2019-03-29T18:37:16.101Z,113.37
2019-03-29T18:39:48.943Z,96.60
2019-03-29T18:42:21.781Z,97.97
2019-03-29T18:44:54.634Z,102.83
2019-03-29T18:47:27.657Z,112.60
2019-03-29T18:50:00.523Z,109.83
2019-03-29T18:52:33.454Z,111.57
2019-03-29T18:55:06.461Z,106.87
2019-03-29T18:57:39.320Z,108.20
2019-03-29T19:00:12.335Z,122.10
2019-03-29T19:02:45.160Z,113.37
2019-03-29T19:05:26.387Z,119.57
2019-03-29T19:07:59.244Z,125.47
2019-03-29T19:10:32.168Z,114.97
2019-03-29T19:13:05.077Z,129.67
2019-03-29T19:15:37.913Z,137.47
2019-03-29T19:18:10.699Z,144.03
2019-03-29T19:20:43.530Z,131.57
2019-03-29T19:23:16.328Z,137.83
2019-03-29T19:25:49.153Z,140.67
2019-03-29T19:28:22.085Z,135.43
2019-03-29T19:30:54.902Z,130.70
2019-03-29T19:33:27.730Z,176.10
2019-03-29T19:36:01.156Z,149.43
2019-03-29T19:38:34.330Z,176.10
2019-03-29T19:41:07.313Z,153.77
2019-03-29T19:43:40.172Z,153.10
2019-03-29T19:46:13.105Z,144.17
2019-03-29T19:48:45.967Z,144.07
2019-03-29T19:51:18.866Z,146.10
2019-03-29T19:53:51.696Z,148.60
2019-03-29T19:56:24.592Z,155.77
2019-03-29T19:58:57.408Z,142.33
2019-03-29T20:01:30.899Z,145.60
2019-03-29T20:04:03.753Z,155.60
2019-03-29T20:06:36.512Z,163.33
2019-03-29T20:09:11.090Z,163.67
2019-03-29T20:11:43.886Z,155.83
2019-03-29T20:14:16.662Z,160.20
2019-03-29T20:16:49.519Z,149.03
2019-03-29T20:19:22.373Z,151.33
2019-03-29T20:21:55.162Z,160.50
2019-03-29T20:24:27.994Z,182.87
2019-03-29T20:27:01.148Z,204.63
2019-03-29T20:29:33.955Z,202.87
2019-03-29T20:32:06.859Z,170.10
2019-03-29T20:34:39.771Z,163.47
2019-03-29T20:37:12.567Z,174.20
2019-03-29T20:39:45.455Z,173.23
2019-03-29T20:42:18.206Z,154.33
2019-03-29T20:44:51.117Z,178.43
2019-03-29T20:47:23.932Z,168.60
2019-03-29T20:49:56.727Z,227.03
2019-03-29T20:52:29.546Z,166.90
2019-03-29T20:55:02.342Z,184.63
2019-03-29T20:57:35.247Z,177.70
2019-03-29T21:00:10.771Z,127.80
2019-03-29T21:02:43.742Z,118.30
2019-03-29T21:05:16.570Z,86.70
2019-03-29T21:07:49.402Z,103.07
2019-03-29T21:10:22.172Z,122.97
2019-03-29T21:12:55.045Z,110.47
2019-03-29T21:15:27.931Z,85.17
2019-03-29T21:18:00.831Z,91.97
2019-03-29T21:20:33.730Z,84.00
2019-03-29T21:23:06.539Z,70.47
2019-03-29T21:25:39.303Z,89.37
2019-03-29T21:28:13.599Z,110.40
2019-03-29T21:30:46.519Z,110.80
2019-03-29T21:33:19.397Z,112.37
2019-03-29T21:35:52.419Z,84.47
2019-03-29T21:38:25.227Z,89.20
2019-03-29T21:40:58.071Z,141.97
2019-03-29T21:43:31.533Z,139.90
2019-03-29T21:46:04.433Z,156.20
2019-03-29T21:48:37.207Z,139.77
2019-03-29T21:51:10.056Z,98.37
2019-03-29T21:53:43.979Z,80.60
2019-03-29T21:56:16.977Z,130.07
2019-03-29T21:58:49.717Z,142.70
2019-03-29T22:01:22.485Z,179.27
2019-03-29T22:03:55.241Z,135.63
2019-03-29T22:06:28.121Z,124.17
2019-03-29T22:09:00.931Z,125.07
2019-03-29T22:11:33.672Z,158.10
2019-03-29T22:14:06.472Z,109.93
2019-03-29T22:16:39.308Z,107.93
2019-03-29T22:19:12.234Z,99.53
2019-03-29T22:21:45.090Z,128.63
2019-03-29T22:24:17.988Z,142.13
2019-03-29T22:26:51.266Z,148.17
2019-03-29T22:29:24.097Z,131.77
2019-03-29T22:31:56.913Z,140.57
2019-03-29T22:34:29.755Z,125.33
2019-03-29T22:37:02.637Z,124.43
2019-03-29T22:39:35.450Z,138.53
2019-03-29T22:42:08.248Z,133.63
2019-03-29T22:44:41.120Z,140.80
2019-03-29T22:47:13.946Z,172.17
2019-03-29T22:49:46.770Z,166.27
2019-03-29T22:52:19.531Z,161.03
2019-03-29T22:54:52.357Z,141.43
2019-03-29T22:57:25.103Z,125.27
2019-03-29T22:59:58.022Z,185.20
2019-03-29T23:02:31.175Z,155.47
2019-03-29T23:05:04.191Z,169.37
2019-03-29T23:07:36.959Z,141.20
2019-03-29T23:10:10.333Z,128.77
2019-03-29T23:12:43.256Z,141.17
2019-03-29T23:15:16.549Z,119.80
2019-03-29T23:17:49.388Z,117.67
2019-03-29T23:20:22.239Z,161.97
2019-03-29T23:22:55.084Z,169.13
2019-03-29T23:25:27.892Z,181.07
2019-03-29T23:28:00.994Z,178.00
2019-03-29T23:30:33.840Z,153.37
2019-03-29T23:33:06.653Z,114.97
2019-03-29T23:35:39.453Z,147.40
2019-03-29T23:38:12.222Z,164.93
2019-03-29T23:40:45.023Z,198.00
2019-03-29T23:43:17.872Z,206.53
2019-03-29T23:45:51.198Z,202.20
2019-03-29T23:48:23.968Z,192.27
2019-03-29T23:50:56.774Z,166.63
2019-03-29T23:53:29.534Z,206.87
2019-03-29T23:56:02.341Z,169.10
2019-03-29T23:58:35.239Z,214.23
